createdAt,value
2022-12-22T00:00:54.907Z,5.61
2022-12-22T00:06:14.750Z,5.56
2022-12-22T00:11:35.065Z,5.64
2022-12-22T00:16:56.825Z,5.61
2022-12-22T00:22:20.204Z,5.54
2022-12-22T00:27:49.670Z,5.63
2022-12-22T00:33:09.732Z,5.63
2022-12-22T00:38:39.890Z,5.56
2022-12-22T00:43:59.751Z,5.62
2022-12-22T00:49:20.372Z,5.50
2022-12-22T00:54:41.487Z,5.50
2022-12-22T01:00:01.569Z,5.53
2022-12-22T01:05:21.772Z,5.50
2022-12-22T01:10:43.930Z,5.52
2022-12-22T01:16:04.378Z,5.47
2022-12-22T01:21:24.883Z,5.56
2022-12-22T01:26:45.216Z,5.45
2022-12-22T01:32:05.306Z,5.47
2022-12-22T01:37:25.505Z,5.50
2022-12-22T01:42:46.757Z,5.53
2022-12-22T01:48:06.882Z,5.52
2022-12-22T01:53:30.983Z,5.58
2022-12-22T01:58:57.359Z,5.47
2022-12-22T02:04:18.237Z,5.47
2022-12-22T02:10:02.727Z,5.52
2022-12-22T02:15:51.354Z,5.43
2022-12-22T02:21:13.903Z,5.53
2022-12-22T02:26:45.073Z,5.53
2022-12-22T02:32:04.927Z,5.55
2022-12-22T02:37:49.468Z,5.53
2022-12-22T02:43:43.702Z,5.63
2022-12-22T02:49:23.095Z,5.65
2022-12-22T02:54:43.461Z,5.63
2022-12-22T03:00:03.345Z,5.58
2022-12-22T03:05:23.773Z,5.69
2022-12-22T03:10:43.974Z,5.61
2022-12-22T03:16:04.048Z,5.68
2022-12-22T03:21:23.987Z,5.57
2022-12-22T03:26:25.722Z,5.61
2022-12-22T03:31:27.697Z,5.63
2022-12-22T03:36:29.233Z,5.71
2022-12-22T03:41:49.372Z,5.72
2022-12-22T03:46:50.877Z,5.72
2022-12-22T03:51:53.603Z,5.74
2022-12-22T03:56:55.132Z,5.75
2022-12-22T04:01:56.800Z,5.69
2022-12-22T04:06:58.632Z,5.73
2022-12-22T04:12:18.432Z,5.75
2022-12-22T04:17:19.938Z,5.79
2022-12-22T04:22:21.483Z,5.71
2022-12-22T04:27:23.009Z,5.80
2022-12-22T04:32:24.523Z,5.73
2022-12-22T04:37:26.036Z,5.77
2022-12-22T04:42:27.520Z,5.76
2022-12-22T04:47:29.024Z,5.73
2022-12-22T04:52:30.539Z,5.76
2022-12-22T04:57:35.556Z,5.80
2022-12-22T05:02:41.711Z,5.84
2022-12-22T05:07:44.007Z,5.81
2022-12-22T05:12:54.466Z,5.81
2022-12-22T05:17:57.310Z,5.85
2022-12-22T05:22:59.272Z,5.81
2022-12-22T05:28:00.736Z,5.89
2022-12-22T05:33:02.161Z,5.83
2022-12-22T05:38:03.659Z,5.89
2022-12-22T05:43:05.693Z,5.85
2022-12-22T05:48:07.189Z,5.84
2022-12-22T05:53:08.702Z,5.84
2022-12-22T05:58:10.174Z,5.85
2022-12-22T06:03:11.698Z,5.87
2022-12-22T06:08:13.235Z,5.83
2022-12-22T06:13:15.046Z,5.84
2022-12-22T06:18:17.294Z,5.86
2022-12-22T06:23:19.066Z,5.90
2022-12-22T06:28:20.587Z,5.85
2022-12-22T06:33:22.220Z,5.87
2022-12-22T06:38:23.722Z,5.82
2022-12-22T06:43:26.008Z,5.82
2022-12-22T06:48:27.665Z,5.83
2022-12-22T06:53:29.138Z,5.76
2022-12-22T06:58:30.609Z,5.78
2022-12-22T07:03:32.209Z,5.80
2022-12-22T07:08:33.741Z,5.85
2022-12-22T07:13:35.810Z,5.83
2022-12-22T07:18:39.942Z,5.89
2022-12-22T07:23:41.853Z,5.86
2022-12-22T07:28:43.437Z,5.98
2022-12-22T07:33:44.962Z,5.86
2022-12-22T07:38:50.346Z,5.82
2022-12-22T07:43:56.916Z,5.94
2022-12-22T07:49:17.077Z,5.88
2022-12-22T07:54:18.825Z,5.88
2022-12-22T07:59:21.157Z,5.94
2022-12-22T08:04:22.805Z,5.99
2022-12-22T08:09:24.505Z,5.90
2022-12-22T08:14:25.949Z,5.94
2022-12-22T08:19:27.538Z,5.92
2022-12-22T08:24:29.402Z,5.93
2022-12-22T08:29:37.340Z,5.93
2022-12-22T08:34:39.649Z,5.87
2022-12-22T08:39:43.079Z,5.92
2022-12-22T08:44:46.074Z,5.92
2022-12-22T08:49:48.853Z,5.87
2022-12-22T08:54:50.333Z,5.96
2022-12-22T08:59:51.793Z,5.97
2022-12-22T09:04:53.253Z,6.14
2022-12-22T09:09:54.764Z,6.51
2022-12-22T09:14:56.244Z,6.63
2022-12-22T09:19:57.707Z,6.78
2022-12-22T09:24:59.242Z,6.81
2022-12-22T09:30:00.753Z,6.73
2022-12-22T09:35:02.173Z,6.62
2022-12-22T09:40:04.018Z,6.50
2022-12-22T09:45:16.824Z,6.39
2022-12-22T09:50:23.534Z,6.36
2022-12-22T09:55:24.935Z,6.28
2022-12-22T10:00:27.526Z,6.27
2022-12-22T10:05:46.994Z,6.19
2022-12-22T10:10:53.923Z,6.26
2022-12-22T10:15:56.001Z,6.44
2022-12-22T10:21:14.668Z,6.47
2022-12-22T10:26:29.651Z,6.51
2022-12-22T10:31:39.514Z,6.45
2022-12-22T10:36:46.782Z,6.48
2022-12-22T10:41:51.565Z,6.51
2022-12-22T10:46:59.637Z,6.45
2022-12-22T10:52:12.502Z,6.55
2022-12-22T10:57:14.003Z,6.53
2022-12-22T11:02:22.639Z,6.73
2022-12-22T11:07:24.509Z,6.87
2022-12-22T11:12:43.871Z,7.40
2022-12-22T11:17:55.314Z,7.69
2022-12-22T11:23:01.562Z,7.01
2022-12-22T11:28:22.005Z,6.80
2022-12-22T11:33:37.609Z,7.02
2022-12-22T11:38:57.029Z,7.38
2022-12-22T11:44:26.230Z,7.12
2022-12-22T11:49:46.461Z,7.15
2022-12-22T11:55:04.227Z,7.16
2022-12-22T12:00:11.877Z,6.85
2022-12-22T12:05:44.703Z,6.77
2022-12-22T12:10:54.053Z,6.68
2022-12-22T12:16:14.731Z,6.53
2022-12-22T12:21:25.782Z,6.53
2022-12-22T12:26:40.264Z,6.36
2022-12-22T12:31:45.437Z,6.28
2022-12-22T12:36:58.437Z,6.30
2022-12-22T12:42:21.364Z,6.40
2022-12-22T12:47:33.918Z,6.40
2022-12-22T12:52:38.484Z,6.26
2022-12-22T12:57:48.260Z,6.27
2022-12-22T13:02:57.761Z,6.32
2022-12-22T13:08:32.692Z,6.30
2022-12-22T13:13:39.674Z,6.12
2022-12-22T13:18:49.563Z,6.03
2022-12-22T13:24:29.551Z,6.00
2022-12-22T13:29:43.643Z,5.94
2022-12-22T13:40:28.225Z,5.68
2022-12-22T13:45:41.198Z,5.61
2022-12-22T13:50:47.254Z,5.64
2022-12-22T13:55:49.214Z,5.50
2022-12-22T14:01:10.254Z,5.54
2022-12-22T14:06:35.997Z,5.54
2022-12-22T14:11:38.012Z,5.42
2022-12-22T14:16:45.539Z,5.54
2022-12-22T14:21:58.848Z,5.64
2022-12-22T14:27:00.598Z,5.70
2022-12-22T14:32:03.003Z,5.49
2022-12-22T14:37:04.582Z,5.69
2022-12-22T14:42:13.045Z,5.63
2022-12-22T14:47:23.221Z,5.60
2022-12-22T14:52:45.037Z,5.63
2022-12-22T14:57:51.231Z,5.65
2022-12-22T15:03:03.562Z,5.61
2022-12-22T15:08:08.923Z,5.70
2022-12-22T15:13:18.314Z,5.64
2022-12-22T15:18:27.841Z,5.56
2022-12-22T15:23:29.332Z,5.66
2022-12-22T15:28:31.520Z,5.71
2022-12-22T15:33:33.115Z,5.71
2022-12-22T15:38:38.664Z,5.63
2022-12-22T15:43:58.408Z,5.66
2022-12-22T15:49:00.751Z,5.57
2022-12-22T15:54:03.524Z,5.72
2022-12-22T15:59:05.282Z,5.58
2022-12-22T16:04:06.974Z,5.64
2022-12-22T16:09:16.994Z,5.67
2022-12-22T16:14:20.438Z,5.72
2022-12-22T16:19:22.010Z,5.69
2022-12-22T16:24:26.408Z,5.76
2022-12-22T16:29:28.090Z,5.71
2022-12-22T16:34:29.677Z,5.63
2022-12-22T16:39:31.127Z,5.73
2022-12-22T16:49:52.249Z,5.65
2022-12-22T16:54:53.783Z,5.77
2022-12-22T16:59:55.294Z,5.75
2022-12-22T17:05:01.176Z,5.75
2022-12-22T17:10:02.816Z,5.79
2022-12-22T17:15:04.542Z,5.73
2022-12-22T17:20:06.633Z,5.81
2022-12-22T17:25:17.544Z,5.89
2022-12-22T17:30:24.215Z,5.86
2022-12-22T17:35:28.638Z,5.99
2022-12-22T17:40:34.261Z,6.01
2022-12-22T17:45:35.885Z,6.03
2022-12-22T17:50:38.302Z,6.01
2022-12-22T17:56:06.992Z,6.04
2022-12-22T18:01:01.456Z,6.09
2022-12-22T18:06:03.095Z,6.07
2022-12-22T18:11:04.685Z,6.01
2022-12-22T18:16:07.348Z,5.96
2022-12-22T18:21:20.905Z,6.05
2022-12-22T18:26:24.571Z,5.98
2022-12-22T18:31:26.340Z,6.06
2022-12-22T18:36:31.469Z,6.10
2022-12-22T18:41:37.006Z,6.06
2022-12-22T18:46:38.476Z,6.16
2022-12-22T18:51:40.455Z,6.18
2022-12-22T18:56:41.893Z,6.07
2022-12-22T19:01:43.538Z,6.08
2022-12-22T19:06:45.132Z,6.10
2022-12-22T19:11:46.803Z,6.03
2022-12-22T19:16:48.849Z,6.03
2022-12-22T19:21:50.640Z,6.00
2022-12-22T19:26:52.185Z,6.01
2022-12-22T19:31:53.856Z,5.96
2022-12-22T19:36:55.355Z,5.96
2022-12-22T19:41:57.181Z,5.90
2022-12-22T19:47:02.053Z,5.91
2022-12-22T19:52:03.775Z,5.83
2022-12-22T19:57:08.820Z,5.83
2022-12-22T20:02:30.798Z,5.85
2022-12-22T20:07:36.825Z,5.80
2022-12-22T20:12:42.267Z,5.80
2022-12-22T20:17:44.757Z,5.82
2022-12-22T20:22:51.271Z,5.75
2022-12-22T20:27:54.276Z,5.77
2022-12-22T20:32:56.443Z,5.69
2022-12-22T20:37:59.051Z,5.74
2022-12-22T20:43:00.570Z,5.74
2022-12-22T20:48:02.272Z,5.77
2022-12-22T20:53:05.320Z,5.68
2022-12-22T20:58:23.658Z,5.83
2022-12-22T21:03:25.583Z,5.77
2022-12-22T21:08:27.170Z,5.68
2022-12-22T21:13:28.605Z,5.74
2022-12-22T21:18:30.014Z,5.81
2022-12-22T21:23:31.477Z,5.70
2022-12-22T21:28:36.035Z,5.79
2022-12-22T21:33:37.575Z,5.77
2022-12-22T21:38:39.122Z,5.79
2022-12-22T21:43:40.686Z,5.77
2022-12-22T21:48:42.149Z,5.82
2022-12-22T21:53:43.561Z,5.83
2022-12-22T21:58:45.162Z,5.81
2022-12-22T22:03:46.631Z,5.87
2022-12-22T22:08:48.053Z,5.81
2022-12-22T22:13:50.619Z,5.91
2022-12-22T22:18:52.124Z,5.98
2022-12-22T22:23:53.567Z,5.99
2022-12-22T22:28:54.969Z,6.00
2022-12-22T22:33:56.748Z,6.09
2022-12-22T22:38:58.268Z,5.99
2022-12-22T22:43:59.747Z,6.00
2022-12-22T22:49:01.570Z,5.94
2022-12-22T22:54:03.082Z,6.18
2022-12-22T22:59:04.949Z,6.04
2022-12-22T23:04:07.433Z,6.11
2022-12-22T23:09:09.561Z,6.05
2022-12-22T23:14:10.973Z,5.98
2022-12-22T23:19:12.483Z,5.89
2022-12-22T23:24:14.006Z,6.04
2022-12-22T23:29:15.422Z,6.14
2022-12-22T23:34:16.971Z,6.08
2022-12-22T23:39:18.480Z,6.04
2022-12-22T23:44:19.969Z,6.00
2022-12-22T23:49:21.535Z,5.96
2022-12-22T23:54:23.222Z,6.07
2022-12-22T23:59:24.717Z,5.99
